Terminal Aerodrome Forecast
Issued by NWS New Orleans/Baton Rouge, LA

Home | Current Version | Previous Version | Text Only | Print | Product List | Glossary On
Versions: 1 2 3 4 5 6 7 8 9 10 11 12 13 14 15 16 17 18 19 20 21 22 23 24 25 26 27 28 29 30 31 32 33 34
000
FTUS44 KLIX 291740
TAFNEW
TAF
KNEW 291740Z 2918/3018 36006KT P6SM BKN200
     FM292100 27011KT P6SM VCTS BKN030CB BKN080
     FM300200 VRB03KT P6SM BKN060 OVC100
     FM300700 09005KT P6SM VCSH BKN060
     FM301200 07011KT P6SM BKN050
     FM301600 09012KT P6SM VCTS BKN030CB=

USA.gov is the U.S. government's official web portal to all federal, state and local government web resources and services.